sim
Sign-in with your pilot id or email,
or register
Callsign
Passwort

Schedule Details

Flight Number: OEC54211
Departure: Stockholm Arlanda Airport (ESSA) at Time
Arrival: Munich Airport (EDDM) at Time

Weather Information
Getting current METAR information for ESSA 302350Z 06004KT 9999 OVC017 11/10 Q1019 TEMPO 3000 BR BKN005
Getting current METAR information for EDDM 302350Z 06002KT 3000 0500NE R08L/0800N R08R/0500N BCFG NSC 05/04 Q1012 NOSIG

Schedule Frequency

Route Map